Time;durP1;ratioP1;P1;durP2;ratioP2;P2;SDS_P1;SDS_P2;PMS_P1;PMS_P2;Temp;Humidity;BMP_temperature;BMP_pressure;BME280_temperature;BME280_humidity;BME280_pressure;Samples;Min_cycle;Max_cycle;Signal;HPM_P1;HPM_P2
2022/09/26 00:00:12;;;;;;;;;;;;;;;-144.99;100.00;52444.03;5089921;28;19966;-73
2022/09/26 00:02:39;;;;;;;;;;;;;;;-144.99;100.00;52456.25;5091213;28;19941;-73
2022/09/26 00:05:06;;;;;;;;;;;;;;;-144.99;100.00;52446.06;5092992;28;20134;-74
2022/09/26 00:07:34;;;;;;;;;;;;;;;-144.99;100.00;52456.25;5092192;28;19951;-74
2022/09/26 00:12:44;;;;;;;;;;;;;;;-144.99;100.00;52468.47;5101146;27;19941;-68
2022/09/26 00:15:11;;;;;;;;;;;;;;;-144.99;100.00;52431.78;5085237;28;19953;-66
2022/09/26 00:17:37;;;;;;;;;;;;;;;-144.99;100.00;52472.56;5097024;28;19946;-65
2022/09/26 00:20:04;;;;;;;;;;;;;;;-144.99;100.00;52421.59;5100888;28;20033;-67
2022/09/26 00:22:31;;;;;;;;;;;;;;;-144.99;100.00;52456.25;5098529;28;19952;-66
2022/09/26 00:24:57;;;;;;;;;;;;;;;-144.99;100.00;52460.31;4742767;28;10000110;-66
2022/09/26 00:27:24;;;;;;;;;;;;;;;-144.99;100.00;52407.31;5083948;28;19960;-66
2022/09/26 00:29:51;;;;;;;;;;;;;;;-144.99;100.00;52423.63;5083701;28;19967;-66
2022/09/26 00:32:18;;;;;;;;;;;;;;;-144.99;100.00;52419.56;5081251;28;19959;-72
2022/09/26 00:34:44;;;;;;;;;;;;;;;-144.99;100.00;52474.59;5079402;28;19972;-70
2022/09/26 00:37:11;;;;;;;;;;;;;;;-144.99;100.00;52460.31;5065737;28;19950;-70
2022/09/26 00:39:37;;;;;;;;;;;;;;;-144.99;100.00;52480.72;5063580;28;19925;-70
2022/09/26 00:42:03;;;;;;;;;;;;;;;-144.99;100.00;52431.78;5078773;28;19957;-69
2022/09/26 00:44:47;;;;;;;;;;;;;;;-144.99;100.00;52427.72;5060373;28;19959;-70
2022/09/26 00:47:29;;;;;;;;;;;;;;;-144.99;100.00;52439.94;5072865;28;20369;-73
2022/09/26 00:49:58;;;;;;;;;;;;;;;-144.99;100.00;52435.88;5086930;28;19959;-74
2022/09/26 00:52:26;;;;;;;;;;;;;;;-144.99;100.00;52427.72;5067370;28;20004;-74
2022/09/26 00:54:55;;;;;;;;;;;;;;;-144.99;100.00;52458.28;5065462;28;19945;-74
2022/09/26 00:57:24;;;;;;;;;;;;;;;-144.99;100.00;52431.78;5067677;28;19947;-74
2022/09/26 00:59:53;;;;;;;;;;;;;;;-144.99;100.00;52452.16;5078187;28;19969;-74
2022/09/26 01:02:19;;;;;;;;;;;;;;;-144.99;100.00;52439.94;5067611;28;19964;-73
2022/09/26 01:04:47;;;;;;;;;;;;;;;-144.99;100.00;52460.31;5067782;28;19982;-73
2022/09/26 01:07:16;;;;;;;;;;;;;;;-144.99;100.00;52421.59;5075346;28;20189;-74
2022/09/26 01:09:43;;;;;;;;;;;;;;;-144.99;100.00;52435.88;5065283;28;19968;-73
2022/09/26 01:12:10;;;;;;;;;;;;;;;-144.99;100.00;52464.41;5073753;28;20066;-76
2022/09/26 01:14:37;;;;;;;;;;;;;;;-144.99;100.00;52431.78;5071227;28;20020;-76
2022/09/26 01:17:04;;;;;;;;;;;;;;;-144.99;100.00;52423.63;5069212;28;20010;-83
2022/09/26 01:19:35;;;;;;;;;;;;;;;-144.99;100.00;52395.09;5066552;28;20018;-74
2022/09/26 01:22:20;;;;;;;;;;;;;;;-144.99;100.00;52427.72;5063991;28;20066;-76
2022/09/26 01:25:07;;;;;;;;;;;;;;;-144.99;100.00;52488.84;5052611;28;20315;-76
2022/09/26 01:27:43;;;;;;;;;;;;;;;-144.99;100.00;52468.47;5052773;28;20462;-76
2022/09/26 01:30:14;;;;;;;;;;;;;;;-144.99;100.00;52444.03;5040500;28;19959;-78
2022/09/26 01:32:52;;;;;;;;;;;;;;;-144.99;100.00;52456.25;5066669;28;19962;-75
2022/09/26 01:35:35;;;;;;;;;;;;;;;-144.99;100.00;52411.41;5062560;28;20033;-75
2022/09/26 01:38:10;;;;;;;;;;;;;;;-144.99;100.00;52452.16;5050475;28;20001;-75
2022/09/26 01:40:40;;;;;;;;;;;;;;;-144.99;100.00;52492.94;5041357;28;20046;-76
2022/09/26 01:43:08;;;;;;;;;;;;;;;-144.99;100.00;52456.25;5039571;28;20409;-75
2022/09/26 01:45:43;;;;;;;;;;;;;;;-144.99;100.00;52431.78;5054221;28;19949;-76
2022/09/26 01:48:15;;;;;;;;;;;;;;;-144.99;100.00;52409.38;5072313;28;20477;-75
2022/09/26 01:50:45;;;;;;;;;;;;;;;-144.99;100.00;52427.72;5068966;28;20029;-75
2022/09/26 01:53:15;;;;;;;;;;;;;;;-144.99;100.00;52448.09;5050859;28;20299;-76
2022/09/26 01:55:45;;;;;;;;;;;;;;;-144.99;100.00;52450.13;5052443;28;19960;-75
2022/09/26 01:58:14;;;;;;;;;;;;;;;-144.99;100.00;52427.72;5052132;28;19950;-75
2022/09/26 02:00:45;;;;;;;;;;;;;;;-144.99;100.00;52439.94;5059949;28;19975;-76
2022/09/26 02:03:13;;;;;;;;;;;;;;;-144.99;100.00;52429.75;5070086;28;19949;-73
2022/09/26 02:05:42;;;;;;;;;;;;;;;-144.99;100.00;52456.25;5050437;28;20455;-73
2022/09/26 02:08:12;;;;;;;;;;;;;;;-144.99;100.00;52403.25;5050651;28;19954;-74
2022/09/26 02:10:43;;;;;;;;;;;;;;;-144.99;100.00;52439.94;5060318;28;20379;-74
2022/09/26 02:13:13;;;;;;;;;;;;;;;-144.99;100.00;52395.09;5065447;28;19970;-74
2022/09/26 02:15:40;;;;;;;;;;;;;;;-144.99;100.00;52423.63;5053967;28;19946;-74
2022/09/26 02:18:12;;;;;;;;;;;;;;;-144.99;100.00;52444.03;5050762;28;19940;-74
2022/09/26 02:20:41;;;;;;;;;;;;;;;-144.99;100.00;52429.75;5051402;28;20046;-73
2022/09/26 02:23:07;;;;;;;;;;;;;;;-144.99;100.00;52435.88;5050084;28;19949;-77
2022/09/26 02:25:34;;;;;;;;;;;;;;;-144.99;100.00;52446.06;5054021;28;20035;-77
2022/09/26 02:28:01;;;;;;;;;;;;;;;-144.99;100.00;52435.88;5057261;28;19993;-76
2022/09/26 02:30:27;;;;;;;;;;;;;;;-144.99;100.00;52450.13;5062320;28;20432;-76
2022/09/26 02:32:54;;;;;;;;;;;;;;;-144.99;100.00;52439.94;5052444;28;19960;-76
2022/09/26 02:38:06;;;;;;;;;;;;;;;-144.99;100.00;52439.94;5043551;28;19971;-82
2022/09/26 02:40:36;;;;;;;;;;;;;;;-144.99;100.00;52456.25;5057104;28;20329;-75
2022/09/26 02:43:07;;;;;;;;;;;;;;;-144.99;100.00;52423.63;5050626;28;19948;-75
2022/09/26 02:45:39;;;;;;;;;;;;;;;-144.99;100.00;52431.78;5050737;28;20042;-77
2022/09/26 02:48:15;;;;;;;;;;;;;;;-144.99;100.00;52452.16;5050541;28;19948;-76
2022/09/26 02:50:53;;;;;;;;;;;;;;;-144.99;100.00;52407.31;5050754;28;20526;-77
2022/09/26 02:53:32;;;;;;;;;;;;;;;-144.99;100.00;52437.91;5048872;28;20469;-76
2022/09/26 02:56:03;;;;;;;;;;;;;;;-144.99;100.00;52429.75;5046192;28;19952;-76
2022/09/26 02:58:34;;;;;;;;;;;;;;;-144.99;100.00;52448.09;5055466;28;19952;-77
2022/09/26 03:01:03;;;;;;;;;;;;;;;-144.99;100.00;52399.19;5051368;28;19960;-75
2022/09/26 03:03:33;;;;;;;;;;;;;;;-144.99;100.00;52409.38;5056206;28;19945;-76
2022/09/26 03:06:01;;;;;;;;;;;;;;;-144.99;100.00;52423.63;5070229;28;19946;-76
2022/09/26 03:08:29;;;;;;;;;;;;;;;-144.99;100.00;52407.31;5056929;28;19980;-76
2022/09/26 03:10:57;;;;;;;;;;;;;;;-144.99;100.00;52415.47;5050693;28;19929;-75
2022/09/26 03:13:25;;;;;;;;;;;;;;;-144.99;100.00;52421.59;5047162;28;19959;-74
2022/09/26 03:15:53;;;;;;;;;;;;;;;-144.99;100.00;52423.63;5052898;28;20172;-76
2022/09/26 03:18:20;;;;;;;;;;;;;;;-144.99;100.00;52429.75;5049997;28;20002;-76
2022/09/26 03:20:47;;;;;;;;;;;;;;;-144.99;100.00;52441.97;5061211;28;19981;-78
2022/09/26 03:23:16;;;;;;;;;;;;;;;-144.99;100.00;52425.66;5050395;28;20421;-77
2022/09/26 03:25:43;;;;;;;;;;;;;;;-144.99;100.00;52427.72;5050262;28;20007;-76
2022/09/26 03:28:09;;;;;;;;;;;;;;;-144.99;100.00;52425.66;5050395;28;19948;-77
2022/09/26 03:30:37;;;;;;;;;;;;;;;-144.99;100.00;52448.09;5050541;28;20404;-76
2022/09/26 03:33:03;;;;;;;;;;;;;;;-144.99;100.00;52429.75;5049744;28;20458;-77
2022/09/26 03:35:30;;;;;;;;;;;;;;;-144.99;100.00;52395.09;5051904;28;19953;-78
2022/09/26 03:37:56;;;;;;;;;;;;;;;-144.99;100.00;52423.63;5050091;28;19980;-78
2022/09/26 03:40:24;;;;;;;;;;;;;;;-144.99;100.00;52460.31;5043599;28;19968;-79
2022/09/26 03:42:50;;;;;;;;;;;;;;;-144.99;100.00;52421.59;5033293;28;19956;-80
2022/09/26 03:45:19;;;;;;;;;;;;;;;-144.99;100.00;52439.94;5046613;28;19997;-80
2022/09/26 03:47:46;;;;;;;;;;;;;;;-144.99;100.00;52446.06;5054321;28;19947;-81
2022/09/26 03:50:13;;;;;;;;;;;;;;;-144.99;100.00;52403.25;5059900;28;19971;-81
2022/09/26 03:52:40;;;;;;;;;;;;;;;-144.99;100.00;52448.09;5069984;28;19970;-82
2022/09/26 03:55:07;;;;;;;;;;;;;;;-144.99;100.00;52435.88;5066146;28;19974;-70
2022/09/26 03:57:35;;;;;;;;;;;;;;;-144.99;100.00;52403.25;5074509;28;20029;-73
2022/09/26 04:00:02;;;;;;;;;;;;;;;-144.99;100.00;52427.72;5073905;28;19974;-70
2022/09/26 04:02:28;;;;;;;;;;;;;;;-144.99;100.00;52439.94;5078879;28;19947;-70
2022/09/26 04:04:55;;;;;;;;;;;;;;;-144.99;100.00;52456.25;5078906;28;19955;-70
2022/09/26 04:07:21;;;;;;;;;;;;;;;-144.99;100.00;52452.16;5069848;28;19964;-70
2022/09/26 04:09:48;;;;;;;;;;;;;;;-144.99;100.00;52423.63;5072933;28;19924;-70
2022/09/26 04:14:52;;;;;;;;;;;;;;;-144.99;100.00;52429.75;5042682;28;19970;-67
2022/09/26 04:17:19;;;;;;;;;;;;;;;-144.99;100.00;52403.25;5047805;28;19936;-70
2022/09/26 04:19:46;;;;;;;;;;;;;;;-144.99;100.00;52403.25;5046848;28;19969;-70
2022/09/26 04:22:12;;;;;;;;;;;;;;;-144.99;100.00;52429.75;5047244;28;20430;-70
2022/09/26 04:24:39;;;;;;;;;;;;;;;-144.99;100.00;52435.88;5045962;28;19950;-69
2022/09/26 04:27:06;;;;;;;;;;;;;;;-144.99;100.00;52419.56;5047780;28;19943;-70
2022/09/26 04:29:33;;;;;;;;;;;;;;;-144.99;100.00;52452.16;5048328;28;20064;-70
2022/09/26 04:32:01;;;;;;;;;;;;;;;-144.99;100.00;52448.09;5048874;28;20052;-69
2022/09/26 04:34:28;;;;;;;;;;;;;;;-144.99;100.00;52439.94;5048320;28;20261;-69
2022/09/26 04:36:54;;;;;;;;;;;;;;;-144.99;100.00;52395.09;5047763;28;20077;-69
2022/09/26 04:39:21;;;;;;;;;;;;;;;-144.99;100.00;52431.78;5045352;28;19959;-69
2022/09/26 04:41:47;;;;;;;;;;;;;;;-144.99;100.00;52427.72;5046316;28;20083;-69
2022/09/26 04:44:14;;;;;;;;;;;;;;;-144.99;100.00;52431.78;5046847;28;19945;-69
2022/09/26 04:46:40;;;;;;;;;;;;;;;-144.99;100.00;52439.94;5047822;28;19992;-74
2022/09/26 04:49:08;;;;;;;;;;;;;;;-144.99;100.00;52391.03;5046458;28;19943;-64
2022/09/26 04:51:35;;;;;;;;;;;;;;;-144.99;100.00;52421.59;5056056;28;20537;-64
2022/09/26 04:54:02;;;;;;;;;;;;;;;-144.99;100.00;52452.16;5047656;28;20054;-64
2022/09/26 04:56:29;;;;;;;;;;;;;;;-144.99;100.00;52439.94;5046957;28;19958;-64
2022/09/26 04:58:57;;;;;;;;;;;;;;;-144.99;100.00;52423.63;5049088;28;19955;-64
2022/09/26 05:01:24;;;;;;;;;;;;;;;-144.99;100.00;52419.56;5051337;28;19968;-71
2022/09/26 05:03:50;;;;;;;;;;;;;;;-144.99;100.00;52419.56;4348403;28;10000785;-71
2022/09/26 05:06:18;;;;;;;;;;;;;;;-144.99;100.00;52448.09;5044814;28;19935;-71
2022/09/26 05:08:47;;;;;;;;;;;;;;;-144.99;100.00;52439.94;5051589;28;19946;-71
2022/09/26 05:11:15;;;;;;;;;;;;;;;-144.99;100.00;52439.94;5046180;28;19967;-71
2022/09/26 05:13:41;;;;;;;;;;;;;;;-144.99;100.00;52448.09;5047158;28;19982;-70
2022/09/26 05:16:08;;;;;;;;;;;;;;;-144.99;100.00;52425.66;5047581;28;20247;-73
2022/09/26 05:18:35;;;;;;;;;;;;;;;-144.99;100.00;52427.72;5047699;28;19957;-72
2022/09/26 05:21:02;;;;;;;;;;;;;;;-144.99;100.00;52439.94;5048287;28;19966;-71
2022/09/26 05:26:19;;;;;;;;;;;;;;;-144.99;100.00;52470.50;5047491;28;20321;-71
2022/09/26 05:28:47;;;;;;;;;;;;;;;-144.99;100.00;52444.03;5047636;28;19929;-71
2022/09/26 05:31:14;;;;;;;;;;;;;;;-144.99;100.00;52460.31;5050078;28;20048;-71
2022/09/26 05:33:40;;;;;;;;;;;;;;;-144.99;100.00;52423.63;5047182;28;20512;-71
2022/09/26 05:36:07;;;;;;;;;;;;;;;-144.99;100.00;52415.47;5047884;28;19953;-71
2022/09/26 05:38:35;;;;;;;;;;;;;;;-144.99;100.00;52427.72;5046005;28;20019;-70
2022/09/26 05:41:01;;;;;;;;;;;;;;;-144.99;100.00;52435.88;5037389;28;19928;-72
2022/09/26 05:43:28;;;;;;;;;;;;;;;-144.99;100.00;52423.63;5047230;28;19953;-71
2022/09/26 05:45:57;;;;;;;;;;;;;;;-144.99;100.00;52399.19;5047186;28;19956;-72
2022/09/26 05:48:24;;;;;;;;;;;;;;;-144.99;100.00;52399.19;5047307;28;20373;-71
2022/09/26 05:50:50;;;;;;;;;;;;;;;-144.99;100.00;52403.25;5050394;28;19962;-70
2022/09/26 05:53:17;;;;;;;;;;;;;;;-144.99;100.00;52407.31;5052892;28;19933;-70
2022/09/26 05:55:48;;;;;;;;;;;;;;;-144.99;100.00;52460.31;5047940;28;19947;-72
2022/09/26 05:58:15;;;;;;;;;;;;;;;-144.99;100.00;52423.63;5050073;28;19980;-72
2022/09/26 06:00:41;;;;;;;;;;;;;;;-144.99;100.00;52393.06;5049554;28;19970;-71
2022/09/26 06:03:08;;;;;;;;;;;;;;;-144.99;100.00;52417.53;5041993;28;20017;-72
2022/09/26 06:05:34;;;;;;;;;;;;;;;-144.99;100.00;52411.41;5046421;28;20030;-73
2022/09/26 06:08:01;;;;;;;;;;;;;;;-144.99;100.00;52395.09;5050977;28;19949;-73
2022/09/26 06:10:28;;;;;;;;;;;;;;;-144.99;100.00;52444.03;5045993;28;19963;-73
2022/09/26 06:12:55;;;;;;;;;;;;;;;-144.99;100.00;52399.19;5044795;28;19963;-72
2022/09/26 06:15:23;;;;;;;;;;;;;;;-144.99;100.00;52431.78;5045535;28;19959;-72
2022/09/26 06:17:57;;;;;;;;;;;;;;;-144.99;100.00;52431.78;5037908;28;19947;-73
2022/09/26 06:20:24;;;;;;;;;;;;;;;-144.99;100.00;52419.56;5034050;28;19964;-71
2022/09/26 06:22:51;;;;;;;;;;;;;;;-144.99;100.00;52419.56;5043900;28;19982;-73
2022/09/26 06:25:18;;;;;;;;;;;;;;;-144.99;100.00;52415.47;5046042;28;20401;-72
2022/09/26 06:27:44;;;;;;;;;;;;;;;-144.99;100.00;52419.56;5045207;28;20013;-72
2022/09/26 06:30:13;;;;;;;;;;;;;;;-144.99;100.00;52433.81;5046123;28;20070;-70
2022/09/26 06:32:39;;;;;;;;;;;;;;;-144.99;100.00;52419.56;5046892;28;19965;-71
2022/09/26 06:35:06;;;;;;;;;;;;;;;-144.99;100.00;52399.19;5045775;28;19963;-71
2022/09/26 06:37:33;;;;;;;;;;;;;;;-144.99;100.00;52407.31;5044037;28;19947;-71
2022/09/26 06:39:59;;;;;;;;;;;;;;;-144.99;100.00;52417.53;5038832;28;19982;-70
2022/09/26 06:42:26;;;;;;;;;;;;;;;-144.99;100.00;52386.94;5040291;28;19973;-71
2022/09/26 06:44:52;;;;;;;;;;;;;;;-144.99;100.00;52456.25;5044539;28;19970;-71
2022/09/26 06:47:20;;;;;;;;;;;;;;;-144.99;100.00;52399.19;5044502;28;19955;-71
2022/09/26 06:49:47;;;;;;;;;;;;;;;-144.99;100.00;52391.03;5044614;28;19976;-72
2022/09/26 06:52:14;;;;;;;;;;;;;;;-144.99;100.00;52403.25;5059027;28;19941;-72
2022/09/26 06:54:41;;;;;;;;;;;;;;;-144.99;100.00;52411.41;5045518;28;19961;-72
2022/09/26 06:57:13;;;;;;;;;;;;;;;-144.99;100.00;52407.31;4916202;28;9999810;-71
2022/09/26 06:59:40;;;;;;;;;;;;;;;-144.99;100.00;52374.72;5044660;28;19960;-70
2022/09/26 07:02:06;;;;;;;;;;;;;;;-144.99;100.00;52409.38;5043946;28;19955;-71
2022/09/26 07:04:34;;;;;;;;;;;;;;;-144.99;100.00;52411.41;5044340;28;19969;-70
2022/09/26 07:07:01;;;;;;;;;;;;;;;-144.99;100.00;52407.31;5044559;28;19943;-71
2022/09/26 07:09:27;;;;;;;;;;;;;;;-144.99;100.00;52423.63;5049677;28;20221;-70
2022/09/26 07:11:54;;;;;;;;;;;;;;;-144.99;100.00;52431.78;5043639;28;19947;-71
2022/09/26 07:14:20;;;;;;;;;;;;;;;-144.99;100.00;52378.78;5044104;28;19957;-71
2022/09/26 07:16:48;;;;;;;;;;;;;;;-144.99;100.00;52391.03;5044790;28;19947;-71
2022/09/26 07:19:15;;;;;;;;;;;;;;;-144.99;100.00;52431.78;5044042;28;19984;-70
2022/09/26 07:21:43;;;;;;;;;;;;;;;-144.99;100.00;52437.91;5043612;28;19973;-71
2022/09/26 07:24:12;;;;;;;;;;;;;;;-144.99;100.00;52439.94;5042439;28;20019;-71
2022/09/26 07:26:39;;;;;;;;;;;;;;;-144.99;100.00;52421.59;5044578;28;20068;-71
2022/09/26 07:29:06;;;;;;;;;;;;;;;-144.99;100.00;52378.78;5044572;28;19952;-69
2022/09/26 07:31:32;;;;;;;;;;;;;;;-144.99;100.00;52419.56;5046359;28;20405;-69
2022/09/26 07:33:58;;;;;;;;;;;;;;;-144.99;100.00;52362.50;5044113;28;19962;-69
2022/09/26 07:36:25;;;;;;;;;;;;;;;-144.99;100.00;52407.31;5045355;28;20349;-72
2022/09/26 07:38:52;;;;;;;;;;;;;;;-144.99;100.00;52425.66;5042753;28;19950;-72
2022/09/26 07:41:19;;;;;;;;;;;;;;;-144.99;100.00;52407.31;5044089;28;19935;-71
2022/09/26 07:43:45;;;;;;;;;;;;;;;-144.99;100.00;52403.25;5044356;28;19955;-70
2022/09/26 07:51:40;;;;;;;;;;;;;;;-144.99;100.00;52362.50;5049606;28;20466;-72
2022/09/26 07:54:08;;;;;;;;;;;;;;;-144.99;100.00;52391.03;5042006;28;19962;-72
2022/09/26 07:56:34;;;;;;;;;;;;;;;-144.99;100.00;52382.88;5044911;28;19948;-72
2022/09/26 07:59:02;;;;;;;;;;;;;;;-144.99;100.00;52384.91;5051257;28;19952;-72
2022/09/26 08:01:29;;;;;;;;;;;;;;;-144.99;100.00;52374.72;5057275;28;19956;-72
2022/09/26 08:03:57;;;;;;;;;;;;;;;-144.99;100.00;52423.63;5057421;28;19943;-72
2022/09/26 08:06:24;;;;;;;;;;;;;;;-144.99;100.00;52374.72;5057180;28;19997;-72
2022/09/26 08:08:52;;;;;;;;;;;;;;;-144.99;100.00;52409.38;5061718;28;19959;-72
2022/09/26 08:11:20;;;;;;;;;;;;;;;-144.99;100.00;52362.50;5067598;28;19957;-72
2022/09/26 08:13:47;;;;;;;;;;;;;;;-144.99;100.00;52333.94;5066370;28;19955;-71
2022/09/26 08:16:21;;;;;;;;;;;;;;;-144.99;100.00;52391.03;5056459;28;20004;-72
2022/09/26 08:18:48;;;;;;;;;;;;;;;-144.99;100.00;52407.31;5048326;28;20351;-71
2022/09/26 08:21:14;;;;;;;;;;;;;;;-144.99;100.00;52431.78;5053157;28;20473;-72
2022/09/26 08:23:41;;;;;;;;;;;;;;;-144.99;100.00;52386.94;5052226;28;20075;-72
2022/09/26 08:26:07;;;;;;;;;;;;;;;-144.99;100.00;52358.41;5053892;28;19947;-72
2022/09/26 08:28:36;;;;;;;;;;;;;;;-144.99;100.00;52370.63;5050070;28;19949;-72
2022/09/26 08:31:03;;;;;;;;;;;;;;;-144.99;100.00;52386.94;5051229;28;19962;-72
2022/09/26 08:33:32;;;;;;;;;;;;;;;-144.99;100.00;52386.94;5047262;28;19974;-72
2022/09/26 08:36:02;;;;;;;;;;;;;;;-144.99;100.00;52388.97;5048655;28;20244;-71
2022/09/26 08:38:29;;;;;;;;;;;;;;;-144.99;100.00;52419.56;5046938;28;19981;-71
2022/09/26 08:40:58;;;;;;;;;;;;;;;-144.99;100.00;52386.94;5047614;28;20016;-73
2022/09/26 08:43:34;;;;;;;;;;;;;;;-144.99;100.00;52391.03;5047564;28;19944;-71
2022/09/26 08:46:30;;;;;;;;;;;;;;;-144.99;100.00;52374.72;5047922;28;19929;-71
2022/09/26 08:49:11;;;;;;;;;;;;;;;-144.99;100.00;52397.13;5047592;28;19954;-71
2022/09/26 08:51:40;;;;;;;;;;;;;;;-144.99;100.00;52374.72;5053379;28;19953;-72
2022/09/26 08:54:10;;;;;;;;;;;;;;;-144.99;100.00;52358.41;5044697;28;19963;-71
2022/09/26 08:56:40;;;;;;;;;;;;;;;-144.99;100.00;52391.03;5047818;28;20377;-72
2022/09/26 08:59:11;;;;;;;;;;;;;;;-144.99;100.00;52352.28;5046893;28;20000;-72
2022/09/26 09:01:41;;;;;;;;;;;;;;;-144.99;100.00;52342.09;5047372;28;19947;-72
2022/09/26 09:04:12;;;;;;;;;;;;;;;-144.99;100.00;52393.06;5046769;28;19947;-72
2022/09/26 09:06:39;;;;;;;;;;;;;;;-144.99;100.00;52350.25;5046594;28;20319;-74
2022/09/26 09:09:05;;;;;;;;;;;;;;;-144.99;100.00;52384.91;5051482;28;20038;-73
2022/09/26 09:11:41;;;;;;;;;;;;;;;-144.99;100.00;52378.78;5046971;28;19947;-72
2022/09/26 09:14:13;;;;;;;;;;;;;;;-144.99;100.00;52386.94;5046653;28;19970;-72
2022/09/26 09:16:50;;;;;;;;;;;;;;;-144.99;100.00;52395.09;5047562;28;19954;-72
2022/09/26 09:19:22;;;;;;;;;;;;;;;-144.99;100.00;52395.09;5047955;28;19966;-71
2022/09/26 09:21:57;;;;;;;;;;;;;;;-144.99;100.00;52435.88;5047006;28;20111;-72
2022/09/26 09:24:43;;;;;;;;;;;;;;;-144.99;100.00;52395.09;5045658;28;19943;-72
2022/09/26 09:27:16;;;;;;;;;;;;;;;-144.99;100.00;52399.19;5047302;28;20404;-71
2022/09/26 09:29:52;;;;;;;;;;;;;;;-144.99;98.72;52350.25;5047659;28;19965;-71
2022/09/26 09:32:22;;;;;;;;;;;;;;;-144.99;97.48;52362.50;5048414;28;20027;-71
2022/09/26 09:34:50;;;;;;;;;;;;;;;-144.99;94.74;52325.81;5047499;28;19964;-71
2022/09/26 09:37:19;;;;;;;;;;;;;;;-144.99;91.00;52321.72;5048275;28;19951;-71
2022/09/26 09:39:47;;;;;;;;;;;;;;;-144.99;88.79;52350.25;5042514;28;19962;-71
2022/09/26 09:42:19;;;;;;;;;;;;;;;-144.99;90.09;52358.41;5046496;28;20876;-70
2022/09/26 09:44:47;;;;;;;;;;;;;;;-144.99;85.96;52376.75;5046389;28;20394;-72
2022/09/26 09:47:14;;;;;;;;;;;;;;;-144.99;83.66;52342.09;5048626;28;20049;-72
2022/09/26 09:49:43;;;;;;;;;;;;;;;-144.99;81.90;52325.81;5048664;28;19980;-71
2022/09/26 09:52:18;;;;;;;;;;;;;;;-144.99;82.94;52362.50;5052245;28;19953;-72
2022/09/26 09:54:52;;;;;;;;;;;;;;;-144.99;81.66;52354.34;5046472;28;19969;-72
2022/09/26 09:57:43;;;;;;;;;;;;;;;-144.99;79.81;52338.03;5047217;28;19947;-72
2022/09/26 10:00:11;;;;;;;;;;;;;;;-144.99;79.91;52325.81;5036112;28;20146;-72
2022/09/26 10:02:42;;;;;;;;;;;;;;;-144.99;80.98;52386.94;5046055;28;19948;-72
2022/09/26 10:05:23;;;;;;;;;;;;;;;-144.99;79.82;52366.56;5047016;28;19999;-72
2022/09/26 10:07:50;;;;;;;;;;;;;;;-144.99;80.02;52370.63;5050016;28;19970;-71
2022/09/26 10:10:19;;;;;;;;;;;;;;;-144.99;81.09;52350.25;5046764;28;19963;-71
2022/09/26 10:12:47;;;;;;;;;;;;;;;-144.99;80.32;52333.94;5045554;28;19962;-71
2022/09/26 10:15:18;;;;;;;;;;;;;;;-144.99;79.30;52354.34;5070382;22;20323;-72
2022/09/26 10:17:57;;;;;;;;;;;;;;;-144.99;79.25;52386.94;5057511;28;19986;-72
2022/09/26 10:20:35;;;;;;;;;;;;;;;-144.99;77.73;52329.88;5057940;28;19963;-72
2022/09/26 10:23:05;;;;;;;;;;;;;;;-144.99;79.65;52342.09;5069392;28;20105;-72
2022/09/26 10:25:31;;;;;;;;;;;;;;;-144.99;78.72;52366.56;5069235;28;19980;-75
2022/09/26 10:27:58;;;;;;;;;;;;;;;-144.99;78.01;52388.97;5071897;28;19955;-71
2022/09/26 10:30:27;;;;;;;;;;;;;;;-144.99;79.41;52346.19;5075405;28;19975;-71
2022/09/26 10:32:55;;;;;;;;;;;;;;;-144.99;79.57;52325.81;5071324;28;19936;-72
2022/09/26 10:35:24;;;;;;;;;;;;;;;-144.99;78.38;52358.41;5066425;28;19972;-73
2022/09/26 10:37:58;;;;;;;;;;;;;;;-144.99;79.95;52358.41;5064576;28;20405;-73
2022/09/26 10:43:24;;;;;;;;;;;;;;;-144.99;82.31;52338.03;5065974;28;19935;-72
2022/09/26 10:45:53;;;;;;;;;;;;;;;-144.99;80.75;52329.88;5066242;28;19950;-73
2022/09/26 10:48:23;;;;;;;;;;;;;;;-144.99;82.57;52370.63;5066759;28;19992;-72
2022/09/26 10:50:50;;;;;;;;;;;;;;;-144.99;79.36;52350.25;5067495;28;20501;-73
2022/09/26 10:53:21;;;;;;;;;;;;;;;-144.99;79.48;52395.09;5063672;28;20321;-73
2022/09/26 10:55:52;;;;;;;;;;;;;;;-144.99;78.22;52362.50;5064888;28;19964;-72
2022/09/26 10:58:21;;;;;;;;;;;;;;;-144.99;79.31;52333.94;5066077;28;19963;-72
2022/09/26 11:00:49;;;;;;;;;;;;;;;-144.99;78.73;52342.09;5065729;28;20213;-72
2022/09/26 11:03:17;;;;;;;;;;;;;;;-144.99;78.50;52350.25;5064724;28;19960;-72
2022/09/26 11:05:57;;;;;;;;;;;;;;;-144.99;79.49;52370.63;5065765;28;19946;-72
2022/09/26 11:08:27;;;;;;;;;;;;;;;-144.99;79.61;52374.72;5060988;28;19928;-72
2022/09/26 11:10:54;;;;;;;;;;;;;;;-144.99;81.31;52372.69;5065354;28;19966;-72
2022/09/26 11:13:21;;;;;;;;;;;;;;;-144.99;79.27;52382.88;5065267;28;19952;-72
2022/09/26 11:16:00;;;;;;;;;;;;;;;-144.99;80.17;52354.34;5065308;28;19961;-72
2022/09/26 11:18:31;;;;;;;;;;;;;;;-144.99;80.80;52386.94;5065150;28;20376;-72
2022/09/26 11:21:01;;;;;;;;;;;;;;;-144.99;81.91;52427.72;5066012;28;20394;-72
2022/09/26 11:23:36;;;;;;;;;;;;;;;-144.99;84.36;52403.25;5063373;28;19947;-72
2022/09/26 11:26:10;;;;;;;;;;;;;;;-144.99;87.26;52399.19;5066223;28;19944;-73
2022/09/26 11:28:39;;;;;;;;;;;;;;;-144.99;88.00;52407.31;5067379;28;19943;-73
2022/09/26 11:31:13;;;;;;;;;;;;;;;-144.99;88.76;52399.19;5074571;28;20000;-73
2022/09/26 11:33:43;;;;;;;;;;;;;;;-144.99;90.11;52391.03;5073573;28;19989;-72
2022/09/26 11:36:18;;;;;;;;;;;;;;;-144.99;93.78;52397.13;5068877;28;19966;-74
2022/09/26 11:38:47;;;;;;;;;;;;;;;-144.99;94.90;52450.13;5064125;28;20391;-74
2022/09/26 11:41:37;;;;;;;;;;;;;;;-144.99;95.51;52407.31;5065404;28;20437;-72
2022/09/26 11:44:14;;;;;;;;;;;;;;;-144.99;94.73;52391.03;5063245;28;20396;-73
2022/09/26 11:46:47;;;;;;;;;;;;;;;-144.99;94.38;52395.09;5065787;28;19944;-73
2022/09/26 11:49:39;;;;;;;;;;;;;;;-144.99;94.78;52415.47;5065219;28;20412;-73
2022/09/26 11:52:14;;;;;;;;;;;;;;;-144.99;95.31;52395.09;5065906;28;19952;-72
2022/09/26 11:54:50;;;;;;;;;;;;;;;-144.99;94.71;52423.63;5063611;28;20320;-72
2022/09/26 11:57:24;;;;;;;;;;;;;;;-144.99;93.86;52415.47;5065216;28;19953;-73
2022/09/26 12:00:01;;;;;;;;;;;;;;;-144.99;93.94;52378.78;5066065;28;20011;-72
2022/09/26 12:02:45;;;;;;;;;;;;;;;-144.99;93.47;52366.56;5052539;28;19957;-72
2022/09/26 12:05:24;;;;;;;;;;;;;;;-144.99;95.14;52399.19;5066153;28;20310;-72
2022/09/26 12:07:57;;;;;;;;;;;;;;;-144.99;94.94;52399.19;5065044;28;19950;-72
2022/09/26 12:10:32;;;;;;;;;;;;;;;-144.99;95.35;52407.31;5071457;28;19964;-72
2022/09/26 12:13:06;;;;;;;;;;;;;;;-144.99;98.04;52399.19;5073753;28;19990;-71
2022/09/26 12:15:37;;;;;;;;;;;;;;;-144.99;97.28;52433.81;5055602;28;19954;-73
2022/09/26 12:18:12;;;;;;;;;;;;;;;-144.99;98.18;52433.81;5064809;28;19949;-72
2022/09/26 12:20:42;;;;;;;;;;;;;;;-144.99;98.49;52411.41;5065856;28;19965;-72
2022/09/26 12:23:13;;;;;;;;;;;;;;;-144.99;98.55;52435.88;5062705;28;20350;-72
2022/09/26 12:25:47;;;;;;;;;;;;;;;-144.99;99.58;52380.84;5065453;28;20008;-73
2022/09/26 12:28:24;;;;;;;;;;;;;;;-144.99;100.00;52415.47;5066142;28;19978;-73
2022/09/26 12:30:57;;;;;;;;;;;;;;;-144.99;100.00;52450.13;5066592;28;19977;-73
2022/09/26 12:33:31;;;;;;;;;;;;;;;-144.99;100.00;52423.63;5076512;28;19950;-73
2022/09/26 12:36:03;;;;;;;;;;;;;;;-144.99;100.00;52433.81;5079403;28;20014;-73
2022/09/26 12:38:36;;;;;;;;;;;;;;;-144.99;100.00;52425.66;5065239;28;19960;-73
2022/09/26 12:41:13;;;;;;;;;;;;;;;-144.99;100.00;52391.03;5065553;28;19965;-74
2022/09/26 12:43:58;;;;;;;;;;;;;;;-144.99;100.00;52386.94;5053033;28;19948;-73
2022/09/26 12:46:43;;;;;;;;;;;;;;;-144.99;100.00;52407.31;5054983;28;19944;-73
2022/09/26 12:49:21;;;;;;;;;;;;;;;-144.99;100.00;52395.09;5065666;28;19954;-74